Česky Dansk Deutsch English Español Suomi Français Magyar Italiano Nederlands norsk Polski Português svenska Türkçe

 

Het Weer

Al Baha (Saudi-Arabië)

01:00, 15 augusti 2016 (GMT)

NWNNE
WE
SWSSE
Home            
Al Baha Bisha Taif Makkah Abha Khamis Mushait Jeddah Jeddah King Abdul Aziz International Airport Wadi Al Dawasser Airport Gizan Najran Sa'Ada / Sadah Port Sudan Port Sudan International Madinah Dawadmi Yenbo Al-Hazm Massawa Sana'A Asmara Hodeidah Sharurah

Om een weerknop op uw website of weblog te plaatsen, copieer onderstaande code en plak die in uw pagina. In het eerste vakje staat HTML-code, in het tweede vakje UBB-code.


Add to Google

Details

Wind speed:3 bf, 9 kn, 4.6 m/s, 10.4 miles/h, 16.7 km/h
Wind direction:NW, 310°
Generella sikten:Över 10000 m, 10 km, 32800 ft, 6.2 miles
Clouds:CAVOC
Temperaturen:25°C, 77°F
Gefühlte Temperatur:26°C, 79°F
Daggpunkt:17°C, 63°F
Lufttrycket:1017 hPa, 762.8 mmHg, 30.03 inHg, 1.004 atm
Relativa fuktigheten:61.2 %
METAR:OEBA 150100Z 31009KT CAVOK 25/17 Q1017 NOSIG

Snelkoppelingen

Actuele weersinformatie van de hele wereld. Voeg locaties toe met het plus (+) symbool. Deze snelkoppelingen kunnen worden toegevoegd aan Google.

Lid van de Technetium groep

website free tracking
StatCounter NetStat W3C Validator

17-04-2021 03:29:27
astro.technetium.be money.technetium.be phote.technetium.be tafeltennistafel.technetium.be www.ligfiets.net